Latest Coastal Weather Observations for Sydney Harbour

IDN60701

Issued at 4:45 am EST Monday 21 April 2014 (issued every 10 minutes, with the page automatically refreshed every 10 minutes)

About coastal observations | Map of coastal stations | Coastal observations for NSW | Marine services | Other Formats
Station Details ID: 066196 Name: WEDDING CAKE WEST Lat: -33.84 Lon: 151.26 Height: 6.0 m
Data from the previous 72 hours. | See also: Recent months for locations in New South Wales
Date/Time
EST
Temp

°C
Wind Pressure Rain
since 9am
mm
Weather Cloud Vis
km
Sea
Height
m
Swell
Dir
 
Speed
knots
Gust
knots
hPa Trend Height
m
Period
s
Dir
21/04:30am 15.4 W 13 16 - - - - - - - - - -
21/04:00am 15.5 WSW 10 14 - - - - - - - - - -
21/03:30am 15.8 WSW 10 12 - - - - - - - - - -
21/03:00am 16.0 W 10 13 - - - - - - - - - -
21/02:30am 16.4 WSW 11 14 - - - - - - - - - -
21/02:00am 16.7 WSW 13 17 - - - - - - - - - -
21/01:30am 16.8 WSW 14 18 - - - - - - - - - -
21/01:00am 17.2 WSW 13 16 - - - - - - - - - -
21/12:30am 17.5 WSW 15 19 - - - - - - - - - -
21/12:00am 17.9 WSW 13 16 - - - - - - - - - -
 
Date/Time
EST
Temp

°C
Wind Pressure Rain
since 9am
mm
Weather Cloud Vis
km
Sea
Height
m
Swell
Dir
 
Speed
knots
Gust
knots
hPa Trend Height
m
Period
s
Dir
20/11:30pm 17.8 WSW 10 15 - - - - - - - - - -
20/11:00pm 18.5 W 9 10 - - - - - - - - - -
20/10:30pm 19.2 N 6 11 - - - - - - - - - -
20/10:00pm 20.0 N 5 6 - - - - - - - - - -
20/09:30pm 20.1 N 4 5 - - - - - - - - - -
20/09:00pm 20.4 N 4 5 - - - - - - - - - -
20/08:30pm 20.2 N 4 5 - - - - - - - - - -
20/08:00pm 20.5 N 5 6 - - - - - - - - - -
20/07:30pm 20.4 N 7 8 - - - - - - - - - -
20/07:00pm 21.2 N 7 9 - - - - - - - - - -
20/06:30pm 21.2 NNE 8 11 - - - - - - - - - -
20/06:00pm 21.0 N 8 11 - - - - - - - - - -
20/05:30pm 21.1 NNE 12 14 - - - - - - - - - -
20/05:00pm 21.0 NNE 12 15 - - - - - - - - - -
20/04:30pm 20.9 NNE 13 16 - - - - - - - - - -
20/04:00pm 20.8 NNE 13 16 - - - - - - - - - -
20/03:30pm 20.7 NNE 11 14 - - - - - - - - - -
20/03:00pm 20.6 NE 12 14 - - - - - - - - - -
20/02:30pm 20.5 ENE 11 12 - - - - - - - - - -
20/02:00pm 20.4 ENE 10 12 - - - - - - - - - -
20/01:30pm 20.7 E 10 13 - - - - - - - - - -
20/01:00pm 20.4 E 8 11 - - - - - - - - - -
20/12:30pm 20.5 ENE 7 8 - - - - - - - - - -
20/12:00pm 20.9 SW 4 4 - - - - - - - - - -
20/11:30am 20.4 SW 4 6 - - - - - - - - - -
20/11:00am 18.9 SW 5 7 - - - - - - - - - -
20/10:30am 18.5 WSW 5 6 - - - - - - - - - -
20/10:00am 17.7 WSW 6 8 - - - - - - - - - -
20/09:30am 16.6 WSW 8 10 - - - - - - - - - -
20/09:00am 16.1 WSW 8 11 - - - - - - - - - -
20/08:30am 15.7 W 9 13 - - - - - - - - - -
20/08:00am 14.8 WSW 7 11 - - - - - - - - - -
20/07:30am 14.8 W 9 12 - - - - - - - - - -
20/07:00am 14.8 WSW 9 11 - - - - - - - - - -
20/06:30am 15.0 WSW 7 9 - - - - - - - - - -
20/06:00am 15.0 WSW 6 8 - - - - - - - - - -
20/05:30am 15.0 WSW 7 10 - - - - - - - - - -
20/05:00am 15.0 SW 3 5 - - - - - - - - - -
20/04:30am 14.8 WSW 6 9 - - - - - - - - - -
20/04:00am 15.0 W 5 8 - - - - - - - - - -
20/03:30am 15.4 W 5 7 - - - - - - - - - -
20/03:00am 15.7 NNW 1 5 - - - - - - - - - -
20/02:30am 15.5 W 8 10 - - - - - - - - - -
20/02:00am 16.2 WNW 8 10 - - - - - - - - - -
20/01:30am 16.0 W 7 9 - - - - - - - - - -
20/01:00am 16.6 WSW 8 11 - - - - - - - - - -
20/12:30am 16.7 WSW 9 11 - - - - - - - - - -
20/12:00am 16.7 W 9 13 - - - - - - - - - -
 
Date/Time
EST
Temp

°C
Wind Pressure Rain
since 9am
mm
Weather Cloud Vis
km
Sea
Height
m
Swell
Dir
 
Speed
knots
Gust
knots
hPa Trend Height
m
Period
s
Dir
19/11:30pm 16.7 W 10 13 - - - - - - - - - -
19/11:00pm 17.0 W 10 13 - - - - - - - - - -
19/10:30pm 17.2 W 12 15 - - - - - - - - - -
19/10:00pm 17.5 W 12 14 - - - - - - - - - -
19/09:30pm 17.7 W 10 12 - - - - - - - - - -
19/09:00pm 19.1 SW 10 11 - - - - - - - - - -
19/08:30pm 19.2 SSW 9 11 - - - - - - - - - -
19/08:00pm 19.1 SSW 9 10 - - - - - - - - - -
19/07:30pm 19.3 SSW 8 10 - - - - - - - - - -
19/07:00pm 19.2 S 11 15 - - - - - - - - - -
19/06:30pm 19.1 S 11 16 - - - - - - - - - -
19/06:00pm 19.2 S 13 17 - - - - - - - - - -
19/05:30pm 18.9 S 14 19 - - - - - - - - - -
19/05:00pm 19.0 S 15 20 - - - - - - - - - -
19/04:30pm 18.9 S 16 20 - - - - - - - - - -
19/04:00pm 18.9 S 16 20 - - - - - - - - - -
19/03:30pm 18.9 S 16 19 - - - - - - - - - -
19/03:00pm 18.8 S 16 20 - - - - - - - - - -
19/02:30pm 19.1 S 16 21 - - - - - - - - - -
19/02:00pm 19.2 S 13 18 - - - - - - - - - -
19/01:30pm 19.1 S 15 19 - - - - - - - - - -
19/01:00pm 19.0 S 15 18 - - - - - - - - - -
19/12:30pm 19.2 SSE 14 18 - - - - - - - - - -
19/12:00pm 19.1 S 13 17 - - - - - - - - - -
19/11:30am 18.7 S 13 17 - - - - - - - - - -
19/11:00am 19.0 S 12 16 - - - - - - - - - -
19/10:30am 19.0 S 13 16 - - - - - - - - - -
19/10:00am 19.0 S 13 17 - - - - - - - - - -
19/09:30am 18.8 S 14 16 - - - - - - - - - -
19/09:00am 19.2 SSW 11 13 - - - - - - - - - -
19/08:30am 18.5 SW 8 10 - - - - - - - - - -
19/08:00am 18.4 SW 10 12 - - - - - - - - - -
19/07:30am 17.7 SW 11 12 - - - - - - - - - -
19/07:00am 17.9 SW 11 13 - - - - - - - - - -
19/06:30am 17.8 SW 12 14 - - - - - - - - - -
19/06:00am 17.9 SW 12 14 - - - - - - - - - -
19/05:30am 18.4 SW 10 13 - - - - - - - - - -
19/05:00am 18.8 SW 11 13 - - - - - - - - - -
19/04:30am 18.6 SW 10 11 - - - - - - - - - -
19/04:00am 18.9 SW 9 14 - - - - - - - - - -
19/03:30am 19.0 W 8 10 - - - - - - - - - -
19/03:00am 19.3 WSW 7 9 - - - - - - - - - -
19/02:30am 19.5 WSW 9 10 - - - - - - - - - -
19/02:00am 19.5 SW 11 12 - - - - - - - - - -
19/01:30am 19.8 SW 13 16 - - - - - - - - - -
19/01:00am 19.7 WSW 9 11 - - - - - - - - - -
19/12:30am 19.6 WSW 8 11 - - - - - - - - - -
19/12:00am 20.2 W 9 13 - - - - - - - - - -
 
Date/Time
EST
Temp

°C
Wind Pressure Rain
since 9am
mm
Weather Cloud Vis
km
Sea
Height
m
Swell
Dir
 
Speed
knots
Gust
knots
hPa Trend Height
m
Period
s
Dir
18/11:30pm 20.5 W 9 11 - - - - - - - - - -
18/11:00pm 20.5 W 8 11 - - - - - - - - - -
18/10:30pm 20.9 W 10 13 - - - - - - - - - -
18/10:00pm 21.2 WNW 9 13 - - - - - - - - - -
18/09:30pm 21.4 WNW 10 13 - - - - - - - - - -
18/09:00pm 21.4 W 7 9 - - - - - - - - - -
18/08:30pm 21.5 W 6 8 - - - - - - - - - -
18/08:00pm 21.6 W 5 6 - - - - - - - - - -
18/07:30pm 22.1 W 5 9 - - - - - - - - - -
18/07:00pm 21.5 SW 1 4 - - - - - - - - - -
18/06:30pm 21.4 CALM 0 0 - - - - - - - - - -
18/06:00pm 21.3 SW 4 6 - - - - - - - - - -
18/05:30pm 21.9 SSE 7 9 - - - - - - - - - -
18/05:00pm 22.4 S 9 11 - - - - - - - - - -
18/04:30pm 23.0 S 13 17 - - - - - - - - - -
18/04:00pm 24.5 WSW 11 16 - - - - - - - - - -
18/03:30pm 24.5 W 11 15 - - - - - - - - - -
18/03:00pm 24.2 W 8 12 - - - - - - - - - -
18/02:30pm 23.7 W 6 11 - - - - - - - - - -
18/02:00pm 23.2 W 8 11 - - - - - - - - - -
18/01:30pm 23.1 W 9 14 - - - - - - - - - -
18/01:00pm 22.3 W 8 12 - - - - - - - - - -
18/12:30pm 22.2 WSW 11 14 - - - - - - - - - -
18/12:00pm 21.7 W 12 16 - - - - - - - - - -
18/11:30am 21.0 W 12 15 - - - - - - - - - -
18/11:00am 20.4 WSW 13 19 - - - - - - - - - -
18/10:30am 19.5 WSW 10 14 - - - - - - - - - -
18/10:00am 18.4 WSW 11 14 - - - - - - - - - -
18/09:30am 17.3 WSW 11 13 - - - - - - - - - -
18/09:00am 16.5 WSW 10 14 - - - - - - - - - -
18/08:30am 16.1 W 12 13 - - - - - - - - - -
18/08:00am 15.4 WSW 12 14 - - - - - - - - - -
18/07:30am 15.2 W 13 15 - - - - - - - - - -
18/07:00am 14.9 W 12 16 - - - - - - - - - -
18/06:30am 14.8 W 14 16 - - - - - - - - - -
18/06:00am 15.0 W 12 16 - - - - - - - - - -
18/05:30am 14.8 W 11 14 - - - - - - - - - -
18/05:00am 15.0 W 12 14 - - - - - - - - - -

Other Formats:

Comma delimited format used in spreadsheet applications
http://www.bom.gov.au/fwo/IDN60701/IDN60701.95766.axf

JavaScript Object Notation format (JSON) in row-major order
http://www.bom.gov.au/fwo/IDN60701/IDN60701.95766.json